Time;durP1;ratioP1;P1;durP2;ratioP2;P2;SDS_P1;SDS_P2;PMS_P1;PMS_P2;Temp;Humidity;BMP_temperature;BMP_pressure;BME280_temperature;BME280_humidity;BME280_pressure;Samples;Min_cycle;Max_cycle;Signal;HPM_P1;HPM_P2
2022/09/19 00:01:34;;;;;;;;;;;;;;;25.53;41.45;94329.44;4979389;28;7000;-61
2022/09/19 00:04:07;;;;;;;;;;;;;;;25.53;41.44;94323.94;4983342;28;7649;-60
2022/09/19 00:06:43;;;;;;;;;;;;;;;25.54;42.04;94336.44;5077140;28;8989;-60
2022/09/19 00:09:14;;;;;;;;;;;;;;;25.51;41.37;94331.97;5062021;28;7251;-61
2022/09/19 00:11:53;;;;;;;;;;;;;;;25.51;41.92;94337.47;5056207;28;7370;-61
2022/09/19 00:14:28;;;;;;;;;;;;;;;25.50;42.04;94340.72;5063744;28;7250;-60
2022/09/19 00:16:57;;;;;;;;;;;;;;;25.48;41.82;94338.50;5051454;28;7633;-61
2022/09/19 00:19:24;;;;;;;;;;;;;;;25.50;41.82;94329.72;5060643;28;7278;-60
2022/09/19 00:22:21;;;;;;;;;;;;;;;25.50;41.29;94337.97;5060504;28;9373;-61
2022/09/19 00:24:49;;;;;;;;;;;;;;;25.50;41.82;94335.97;5003378;28;7235;-60
2022/09/19 00:27:25;;;;;;;;;;;;;;;25.49;41.55;94328.97;5031269;28;7246;-60
2022/09/19 00:29:53;;;;;;;;;;;;;;;25.50;42.03;94330.47;5014143;28;7005;-60
2022/09/19 00:32:23;;;;;;;;;;;;;;;25.49;42.29;94339.97;5013921;28;7643;-60
2022/09/19 00:34:52;;;;;;;;;;;;;;;25.48;41.97;94332.22;5015119;28;7164;-60
2022/09/19 00:37:19;;;;;;;;;;;;;;;25.50;41.63;94335.97;5000880;28;8984;-61
2022/09/19 00:39:55;;;;;;;;;;;;;;;25.49;41.77;94328.97;5013622;28;7203;-61
2022/09/19 00:42:24;;;;;;;;;;;;;;;25.49;41.89;94334.47;5038204;28;7269;-60
2022/09/19 00:45:15;;;;;;;;;;;;;;;25.49;41.27;94328.97;5019503;28;7679;-60
2022/09/19 00:47:54;;;;;;;;;;;;;;;25.48;41.29;94330.22;5014267;28;8918;-60
2022/09/19 00:50:56;;;;;;;;;;;;;;;25.48;41.73;94327.47;5020360;28;9057;-61
2022/09/19 00:53:27;;;;;;;;;;;;;;;25.48;42.34;94327.47;4968404;28;7225;-60
2022/09/19 00:55:55;;;;;;;;;;;;;;;25.48;41.48;94335.75;4970458;28;8458;-61
2022/09/19 00:58:43;;;;;;;;;;;;;;;25.48;41.70;94332.97;4947753;28;8420;-61
2022/09/19 01:01:25;;;;;;;;;;;;;;;25.47;42.24;94330.75;4984805;28;7301;-60
2022/09/19 01:04:01;;;;;;;;;;;;;;;25.47;41.62;94334.22;5038360;28;7091;-61
2022/09/19 01:06:40;;;;;;;;;;;;;;;25.49;41.81;94328.22;5019687;28;7131;-61
2022/09/19 01:09:39;;;;;;;;;;;;;;;25.47;41.34;94336.25;5018689;28;8110;-61
2022/09/19 01:12:48;;;;;;;;;;;;;;;25.46;42.39;94323.72;5002701;28;7739;-60
2022/09/19 01:15:38;;;;;;;;;;;;;;;25.45;42.18;94328.50;4913042;29;7238;-61
2022/09/19 01:18:08;;;;;;;;;;;;;;;25.45;41.91;94325.00;4919608;29;8436;-60
2022/09/19 01:24:17;;;;;;;;;;;;;;;25.44;42.32;94327.00;4925354;29;9073;-60
2022/09/19 01:27:12;;;;;;;;;;;;;;;25.43;42.05;94326.25;4919789;29;7021;-60
2022/09/19 01:29:55;;;;;;;;;;;;;;;25.42;41.77;94321.25;4919728;28;7252;-61
2022/09/19 01:32:28;;;;;;;;;;;;;;;25.44;42.29;94338.03;4924709;28;6993;-61
2022/09/19 01:35:02;;;;;;;;;;;;;;;25.45;42.00;94334.00;4929498;28;7400;-61
2022/09/19 01:37:42;;;;;;;;;;;;;;;25.44;42.23;94338.03;4935480;28;7321;-61
2022/09/19 01:40:25;;;;;;;;;;;;;;;25.42;41.63;94337.78;4934640;28;7241;-60
2022/09/19 01:43:01;;;;;;;;;;;;;;;25.41;41.59;94344.50;4944584;28;7891;-61
2022/09/19 01:45:36;;;;;;;;;;;;;;;25.41;41.48;94355.53;4947839;28;7275;-60
2022/09/19 01:48:12;;;;;;;;;;;;;;;25.42;41.98;94351.56;4942373;28;6966;-60
2022/09/19 01:50:50;;;;;;;;;;;;;;;25.42;41.99;94351.56;4926254;28;9140;-60
2022/09/19 01:53:33;;;;;;;;;;;;;;;25.42;42.10;94352.28;5053902;28;7309;-61
2022/09/19 01:56:21;;;;;;;;;;;;;;;25.42;41.58;94360.53;5054915;28;7597;-60
2022/09/19 01:59:05;;;;;;;;;;;;;;;25.41;42.31;94355.53;5064806;28;7244;-61
2022/09/19 02:02:09;;;;;;;;;;;;;;;25.40;42.05;94365.78;5070897;28;8482;-61
2022/09/19 02:04:45;;;;;;;;;;;;;;;25.40;41.96;94365.06;5065313;28;8521;-60
2022/09/19 02:07:25;;;;;;;;;;;;;;;25.38;41.61;94362.06;5050684;28;7215;-61
2022/09/19 02:10:32;;;;;;;;;;;;;;;25.39;41.57;94369.06;5064837;28;7813;-60
2022/09/19 02:13:08;;;;;;;;;;;;;;;25.37;41.95;94366.06;5076484;28;6985;-60
2022/09/19 02:15:40;;;;;;;;;;;;;;;25.37;41.62;94368.81;5046497;28;8917;-61
2022/09/19 02:18:24;;;;;;;;;;;;;;;25.37;41.67;94375.06;5061193;28;9321;-61
2022/09/19 02:20:59;;;;;;;;;;;;;;;25.38;42.15;94378.59;5043834;28;7358;-61
2022/09/19 02:23:39;;;;;;;;;;;;;;;25.38;41.88;94375.84;5053029;28;7375;-61
2022/09/19 02:26:09;;;;;;;;;;;;;;;25.37;41.62;94375.06;5045123;28;7572;-61
2022/09/19 02:28:54;;;;;;;;;;;;;;;25.38;41.89;94379.31;5055196;28;6975;-61
2022/09/19 02:31:34;;;;;;;;;;;;;;;25.35;41.58;94366.59;5072883;28;9170;-61
2022/09/19 02:34:09;;;;;;;;;;;;;;;25.35;41.67;94369.34;5061853;28;9086;-60
2022/09/19 02:36:44;;;;;;;;;;;;;;;25.35;42.60;94365.84;5046649;28;7618;-62
2022/09/19 02:39:22;;;;;;;;;;;;;;;25.34;41.76;94359.56;5067915;28;9201;-61
2022/09/19 02:42:03;;;;;;;;;;;;;;;25.34;42.41;94367.81;5078770;28;7236;-61
2022/09/19 02:44:57;;;;;;;;;;;;;;;25.35;41.48;94363.06;5061545;28;7354;-61
2022/09/19 02:47:51;;;;;;;;;;;;;;;25.35;42.43;94354.81;5064720;28;7236;-61
2022/09/19 02:50:28;;;;;;;;;;;;;;;25.33;42.22;94355.34;5048877;28;7332;-60
2022/09/19 02:52:59;;;;;;;;;;;;;;;25.32;41.98;94353.06;5059000;28;9469;-61
2022/09/19 02:55:32;;;;;;;;;;;;;;;25.32;41.79;94353.06;5040584;28;7560;-60
2022/09/19 02:58:07;;;;;;;;;;;;;;;25.32;41.89;94359.34;5062742;28;7466;-60
2022/09/19 03:00:38;;;;;;;;;;;;;;;25.35;42.36;94349.31;5061426;28;10445;-60
2022/09/19 03:06:13;;;;;;;;;;;;;;;25.33;41.43;94358.09;5064028;28;6960;-60
2022/09/19 03:08:52;;;;;;;;;;;;;;;25.35;41.83;94369.34;5079817;28;7487;-61
2022/09/19 03:11:23;;;;;;;;;;;;;;;25.34;41.51;94365.06;5061282;28;7245;-61
2022/09/19 03:13:56;;;;;;;;;;;;;;;25.33;42.06;94369.09;5078058;28;9461;-61
2022/09/19 03:16:35;;;;;;;;;;;;;;;25.33;42.16;94369.09;5043553;28;7056;-61
2022/09/19 03:19:08;;;;;;;;;;;;;;;25.34;41.99;94367.06;5047751;28;7174;-60
2022/09/19 03:21:37;;;;;;;;;;;;;;;25.33;42.26;94371.84;5060827;28;7173;-61
2022/09/19 03:24:05;;;;;;;;;;;;;;;25.33;41.93;94371.09;5062769;28;8704;-61
2022/09/19 03:26:44;;;;;;;;;;;;;;;25.30;41.53;94364.59;5059238;28;7402;-61
2022/09/19 03:29:11;;;;;;;;;;;;;;;25.33;42.30;94371.84;5059655;28;7435;-61
2022/09/19 03:31:39;;;;;;;;;;;;;;;25.33;42.40;94365.59;5042230;28;7371;-61
2022/09/19 03:34:07;;;;;;;;;;;;;;;25.32;41.48;94369.59;5036445;28;7280;-61
2022/09/19 03:36:33;;;;;;;;;;;;;;;25.32;41.89;94369.59;5053838;28;6968;-60
2022/09/19 03:39:01;;;;;;;;;;;;;;;25.31;41.93;94363.34;5037522;28;7325;-61
2022/09/19 03:41:32;;;;;;;;;;;;;;;25.32;41.55;94361.34;5050660;28;7182;-61
2022/09/19 03:44:05;;;;;;;;;;;;;;;25.33;41.44;94363.59;5051057;28;9118;-61
2022/09/19 03:46:32;;;;;;;;;;;;;;;25.32;41.69;94369.59;5066916;28;7135;-61
2022/09/19 03:49:02;;;;;;;;;;;;;;;25.30;41.55;94363.84;5043179;28;7486;-60
2022/09/19 03:51:37;;;;;;;;;;;;;;;25.31;41.37;94379.13;5061904;28;9431;-60
2022/09/19 03:54:10;;;;;;;;;;;;;;;25.31;41.86;94373.63;5042081;28;7256;-60
2022/09/19 03:56:46;;;;;;;;;;;;;;;25.31;42.58;94385.38;5063139;28;7872;-61
2022/09/19 03:59:12;;;;;;;;;;;;;;;25.30;41.66;94386.63;5051717;28;7260;-61
2022/09/19 04:01:40;;;;;;;;;;;;;;;25.28;41.68;94391.13;5038528;28;8070;-60
2022/09/19 04:04:14;;;;;;;;;;;;;;;25.30;42.12;94385.88;5077045;28;7657;-61
2022/09/19 04:07:10;;;;;;;;;;;;;;;25.30;41.84;94399.63;5043325;28;7270;-61
2022/09/19 04:09:37;;;;;;;;;;;;;;;25.27;42.00;94400.66;4972817;28;7233;-61
2022/09/19 04:12:04;;;;;;;;;;;;;;;25.25;42.19;94401.16;4995822;28;9079;-61
2022/09/19 04:14:40;;;;;;;;;;;;;;;25.25;42.42;94403.91;4998647;28;8229;-61
2022/09/19 04:17:11;;;;;;;;;;;;;;;25.25;41.85;94394.94;4989554;28;9049;-61
2022/09/19 04:19:46;;;;;;;;;;;;;;;25.25;41.43;94403.91;4983389;28;6989;-61
2022/09/19 04:22:21;;;;;;;;;;;;;;;25.25;41.59;94401.16;4973756;28;7446;-60
2022/09/19 04:24:51;;;;;;;;;;;;;;;25.25;41.71;94403.19;5004495;28;9270;-61
2022/09/19 04:27:18;;;;;;;;;;;;;;;25.23;41.94;94403.66;4985730;28;7230;-60
2022/09/19 04:29:44;;;;;;;;;;;;;;;25.24;41.88;94407.19;4974005;28;7606;-61
2022/09/19 04:32:10;;;;;;;;;;;;;;;25.26;41.45;94410.16;5019834;28;6988;-60
2022/09/19 04:34:36;;;;;;;;;;;;;;;25.27;41.70;94401.41;5002454;28;7130;-61
2022/09/19 04:37:06;;;;;;;;;;;;;;;25.27;41.45;94408.94;4972726;28;7172;-61
2022/09/19 04:39:37;;;;;;;;;;;;;;;25.25;44.81;94400.44;4981066;28;9704;-60
2022/09/19 04:42:04;;;;;;;;;;;;;;;25.22;45.64;94409.69;5003224;28;6988;-60
2022/09/19 04:44:31;;;;;;;;;;;;;;;25.24;42.73;94415.44;5000004;28;7103;-60
2022/09/19 04:47:06;;;;;;;;;;;;;;;25.23;42.56;94414.69;5053375;28;7245;-60
2022/09/19 04:49:42;;;;;;;;;;;;;;;25.24;42.61;94423.69;5076232;28;7071;-60
2022/09/19 04:52:23;;;;;;;;;;;;;;;25.21;41.85;94424.69;5060193;28;7564;-60
2022/09/19 04:54:49;;;;;;;;;;;;;;;25.22;42.29;94429.72;5061401;28;8988;-60
2022/09/19 04:57:27;;;;;;;;;;;;;;;25.18;42.03;94420.97;5047026;28;7245;-60
2022/09/19 04:59:55;;;;;;;;;;;;;;;25.16;42.46;94429.00;5048457;28;7104;-60
2022/09/19 05:02:21;;;;;;;;;;;;;;;25.17;43.42;94430.47;5052763;28;7394;-60
2022/09/19 05:04:48;;;;;;;;;;;;;;;25.19;42.66;94432.72;5050281;28;8565;-60
2022/09/19 05:07:14;;;;;;;;;;;;;;;25.18;42.67;94432.00;5062359;28;7157;-60
2022/09/19 05:09:44;;;;;;;;;;;;;;;25.21;42.08;94438.47;5056364;28;7552;-60
2022/09/19 05:12:22;;;;;;;;;;;;;;;25.18;42.35;94439.50;5067033;28;9384;-60
2022/09/19 05:14:49;;;;;;;;;;;;;;;25.16;43.25;94442.75;5065496;28;7135;-60
2022/09/19 05:17:25;;;;;;;;;;;;;;;25.18;42.43;94442.25;5085190;28;7059;-59
2022/09/19 05:19:53;;;;;;;;;;;;;;;25.18;42.93;94453.25;5067513;28;7193;-60
2022/09/19 05:22:21;;;;;;;;;;;;;;;25.17;41.88;94443.50;5064018;28;7047;-60
2022/09/19 05:24:52;;;;;;;;;;;;;;;25.19;41.63;94458.25;5044227;28;8784;-60
2022/09/19 05:27:32;;;;;;;;;;;;;;;25.18;41.76;94456.75;5080644;28;7232;-60
2022/09/19 05:30:11;;;;;;;;;;;;;;;25.19;41.37;94460.25;5066416;28;7037;-60
2022/09/19 05:32:44;;;;;;;;;;;;;;;25.18;41.53;94459.50;5063945;28;7148;-60
2022/09/19 05:35:11;;;;;;;;;;;;;;;25.19;41.60;94466.50;5062284;28;7594;-60
2022/09/19 05:37:41;;;;;;;;;;;;;;;25.21;40.89;94463.25;5063883;28;7282;-60
2022/09/19 05:40:10;;;;;;;;;;;;;;;25.19;40.60;94472.00;5063705;28;7313;-60
2022/09/19 05:42:49;;;;;;;;;;;;;;;25.17;40.95;94469.00;5047439;28;7173;-60
2022/09/19 05:45:26;;;;;;;;;;;;;;;25.19;40.33;94476.75;5078303;28;8513;-60
2022/09/19 05:48:06;;;;;;;;;;;;;;;25.18;41.38;94470.53;5062674;28;7027;-60
2022/09/19 05:50:35;;;;;;;;;;;;;;;25.15;41.57;94474.28;5046823;28;6993;-60
2022/09/19 05:55:51;;;;;;;;;;;;;;;25.09;41.97;94487.31;5070004;28;7398;-60
2022/09/19 05:58:20;;;;;;;;;;;;;;;25.13;41.58;94489.78;5058818;28;7248;-60
2022/09/19 06:00:55;;;;;;;;;;;;;;;25.14;41.40;94492.03;5053084;28;8477;-60
2022/09/19 06:03:22;;;;;;;;;;;;;;;25.14;41.37;94486.53;5044699;28;9463;-60
2022/09/19 06:05:51;;;;;;;;;;;;;;;25.13;41.06;94493.31;5042384;28;7231;-60
2022/09/19 06:08:21;;;;;;;;;;;;;;;25.14;41.34;94497.53;5049490;28;7667;-60
2022/09/19 06:10:51;;;;;;;;;;;;;;;25.15;41.78;94501.03;5050915;28;7244;-60
2022/09/19 06:13:22;;;;;;;;;;;;;;;25.14;40.67;94494.06;5051226;28;10372;-60
2022/09/19 06:15:52;;;;;;;;;;;;;;;25.15;41.06;94503.81;5063622;28;7428;-60
2022/09/19 06:18:21;;;;;;;;;;;;;;;25.16;40.95;94494.31;5031827;28;7066;-60
2022/09/19 06:20:58;;;;;;;;;;;;;;;25.17;41.59;94495.78;5062083;28;8223;-60
2022/09/19 06:23:35;;;;;;;;;;;;;;;25.17;41.29;94495.78;5065134;28;7609;-60
2022/09/19 06:26:03;;;;;;;;;;;;;;;25.18;41.86;94502.81;5064294;28;7246;-60
2022/09/19 06:28:33;;;;;;;;;;;;;;;25.18;41.17;94497.28;5044270;28;7123;-60
2022/09/19 06:31:08;;;;;;;;;;;;;;;25.18;41.63;94497.28;5056963;28;7156;-60
2022/09/19 06:33:36;;;;;;;;;;;;;;;25.18;41.28;94500.81;5042924;28;8918;-60
2022/09/19 06:36:08;;;;;;;;;;;;;;;25.20;41.04;94500.28;5077801;28;9007;-60
2022/09/19 06:38:35;;;;;;;;;;;;;;;25.21;41.26;94502.53;5056652;28;7333;-60
2022/09/19 06:41:06;;;;;;;;;;;;;;;25.18;41.98;94502.81;5055149;28;10120;-60
2022/09/19 06:43:41;;;;;;;;;;;;;;;25.21;41.36;94519.03;5058067;28;7202;-60
2022/09/19 06:46:10;;;;;;;;;;;;;;;25.17;41.50;94501.28;5065633;28;7274;-60
2022/09/19 06:48:38;;;;;;;;;;;;;;;25.18;41.98;94519.31;5038138;28;8462;-60
2022/09/19 06:51:04;;;;;;;;;;;;;;;25.16;41.30;94521.81;5072462;28;7157;-60
2022/09/19 06:53:36;;;;;;;;;;;;;;;25.14;41.93;94522.31;5056445;28;7579;-60
2022/09/19 06:56:04;;;;;;;;;;;;;;;25.16;41.47;94521.81;5078812;28;7350;-60
2022/09/19 06:58:39;;;;;;;;;;;;;;;25.19;41.53;94529.06;5056005;28;6990;-60
2022/09/19 07:01:05;;;;;;;;;;;;;;;25.20;41.30;94530.56;5042054;28;7123;-60
2022/09/19 07:03:34;;;;;;;;;;;;;;;25.20;41.84;94527.81;5056513;28;7214;-60
2022/09/19 07:06:01;;;;;;;;;;;;;;;25.18;41.43;94541.34;5069734;28;8286;-60
2022/09/19 07:08:29;;;;;;;;;;;;;;;25.16;42.45;94549.34;5064769;28;9463;-60
2022/09/19 07:10:57;;;;;;;;;;;;;;;25.15;42.41;94550.59;5057250;28;7056;-60
2022/09/19 07:13:28;;;;;;;;;;;;;;;25.14;41.97;94557.38;5061345;28;7203;-60
2022/09/19 07:16:06;;;;;;;;;;;;;;;25.15;41.71;94558.84;5044445;28;9394;-60
2022/09/19 07:18:40;;;;;;;;;;;;;;;25.12;41.72;94555.09;5048331;28;7213;-60
2022/09/19 07:21:06;;;;;;;;;;;;;;;25.12;42.47;94554.38;5065175;28;8880;-60
2022/09/19 07:23:33;;;;;;;;;;;;;;;25.11;42.48;94553.63;5046964;28;6992;-60
2022/09/19 07:26:00;;;;;;;;;;;;;;;25.07;41.95;94557.88;5058640;28;7978;-60
2022/09/19 07:28:26;;;;;;;;;;;;;;;25.07;41.86;94564.13;5049118;28;7342;-60
2022/09/19 07:31:01;;;;;;;;;;;;;;;25.08;41.99;94565.63;5052038;28;8094;-60
2022/09/19 07:33:28;;;;;;;;;;;;;;;25.07;42.31;94564.13;5063114;28;9710;-60
2022/09/19 07:35:57;;;;;;;;;;;;;;;25.06;42.19;94564.63;5064566;28;7237;-60
2022/09/19 07:38:26;;;;;;;;;;;;;;;25.07;42.56;94574.38;5054319;28;9332;-60
2022/09/19 07:40:55;;;;;;;;;;;;;;;25.09;42.13;94572.63;5043376;28;7350;-60
2022/09/19 07:43:30;;;;;;;;;;;;;;;25.09;42.57;94578.13;5061241;28;7331;-60
2022/09/19 07:46:00;;;;;;;;;;;;;;;25.09;41.98;94578.13;5044263;28;8100;-60
2022/09/19 07:48:25;;;;;;;;;;;;;;;25.07;42.70;94580.66;5064759;28;7544;-60
2022/09/19 07:50:56;;;;;;;;;;;;;;;25.05;41.93;94577.66;5068991;28;7969;-60
2022/09/19 07:53:24;;;;;;;;;;;;;;;25.06;42.54;94592.13;5066907;28;7051;-60
2022/09/19 07:55:57;;;;;;;;;;;;;;;25.06;42.33;94589.38;5067139;28;8741;-60
2022/09/19 07:58:25;;;;;;;;;;;;;;;25.09;42.16;94588.38;5068088;28;7005;-60
2022/09/19 08:00:58;;;;;;;;;;;;;;;25.10;42.54;94585.13;5065510;28;7414;-60
2022/09/19 08:03:35;;;;;;;;;;;;;;;25.10;42.31;94590.63;5050976;28;6981;-60
2022/09/19 08:06:29;;;;;;;;;;;;;;;25.09;42.61;94597.41;5051446;28;7272;-60
2022/09/19 08:08:54;;;;;;;;;;;;;;;25.08;41.79;94604.16;5051345;28;8035;-60
2022/09/19 08:11:21;;;;;;;;;;;;;;;25.07;42.71;94597.16;5024984;28;9332;-60
2022/09/19 08:13:47;;;;;;;;;;;;;;;25.08;42.50;94603.38;5027985;28;7353;-60
2022/09/19 08:16:14;;;;;;;;;;;;;;;25.06;42.28;94603.16;5028572;28;7293;-60
2022/09/19 08:18:46;;;;;;;;;;;;;;;25.06;41.96;94605.91;5039048;28;7791;-60
2022/09/19 08:21:44;;;;;;;;;;;;;;;25.09;41.91;94613.91;5039282;28;8558;-60
2022/09/19 08:24:22;;;;;;;;;;;;;;;25.08;42.59;94614.41;4950089;28;7261;-60
2022/09/19 08:26:56;;;;;;;;;;;;;;;25.09;42.99;94611.16;4948036;28;7227;-60
2022/09/19 08:29:32;;;;;;;;;;;;;;;25.06;42.49;94606.66;4930708;28;9046;-60
2022/09/19 08:32:11;;;;;;;;;;;;;;;25.05;42.36;94618.16;4948359;28;7110;-60
2022/09/19 08:34:37;;;;;;;;;;;;;;;25.05;42.91;94620.94;4931534;28;7469;-60
2022/09/19 08:37:03;;;;;;;;;;;;;;;25.04;42.37;94616.66;4933961;28;9076;-60
2022/09/19 08:39:29;;;;;;;;;;;;;;;25.03;42.75;94618.69;4946047;28;7346;-60
2022/09/19 08:42:12;;;;;;;;;;;;;;;25.05;42.41;94620.94;4946800;28;9429;-60
2022/09/19 08:44:49;;;;;;;;;;;;;;;25.05;42.61;94620.94;4934116;28;7307;-60
2022/09/19 08:47:23;;;;;;;;;;;;;;;25.02;42.59;94614.41;4987272;28;7764;-60
2022/09/19 08:50:23;;;;;;;;;;;;;;;25.04;43.21;94622.16;4969615;28;7234;-60
2022/09/19 08:52:57;;;;;;;;;;;;;;;25.04;42.88;94613.91;4987638;28;7186;-60
2022/09/19 08:55:33;;;;;;;;;;;;;;;25.02;43.03;94621.91;4976002;28;7577;-60
2022/09/19 08:58:12;;;;;;;;;;;;;;;25.04;43.15;94620.16;4980637;28;7197;-60
2022/09/19 09:00:45;;;;;;;;;;;;;;;25.04;42.81;94622.16;5035551;28;7248;-60
2022/09/19 09:03:29;;;;;;;;;;;;;;;25.04;43.08;94622.16;5053851;28;7311;-60
2022/09/19 09:06:05;;;;;;;;;;;;;;;25.03;42.59;94626.19;5061357;28;7084;-60
2022/09/19 09:08:52;;;;;;;;;;;;;;;25.03;42.45;94626.19;5060887;28;7224;-60
2022/09/19 09:11:59;;;;;;;;;;;;;;;25.04;42.48;94620.16;5068088;28;9212;-60
2022/09/19 09:14:41;;;;;;;;;;;;;;;25.03;42.83;94626.94;5066856;28;7160;-60
2022/09/19 09:17:25;;;;;;;;;;;;;;;25.03;42.51;94628.94;5082517;28;7112;-60
2022/09/19 09:20:17;;;;;;;;;;;;;;;25.04;42.59;94624.91;5072787;28;7091;-60
2022/09/19 09:23:14;;;;;;;;;;;;;;;25.05;42.44;94626.44;4983972;28;7553;-60
2022/09/19 09:25:46;;;;;;;;;;;;;;;25.04;42.53;94624.91;4909440;29;7367;-60
2022/09/19 09:28:38;;;;;;;;;;;;;;;25.03;43.48;94623.44;4933200;28;6990;-60
2022/09/19 09:31:19;;;;;;;;;;;;;;;25.03;43.06;94615.94;4933269;28;6999;-60
2022/09/19 09:33:58;;;;;;;;;;;;;;;25.04;42.89;94622.16;4928853;28;7086;-60
2022/09/19 09:36:32;;;;;;;;;;;;;;;25.04;42.72;94620.16;4930357;28;7080;-60
2022/09/19 09:39:39;;;;;;;;;;;;;;;25.03;43.41;94624.19;4913666;29;9075;-60
2022/09/19 09:42:10;;;;;;;;;;;;;;;25.06;42.68;94623.16;4922596;28;8918;-60
2022/09/19 09:45:35;;;;;;;;;;;;;;;25.08;42.99;94620.66;4929941;28;8985;-60
2022/09/19 09:48:39;;;;;;;;;;;;;;;25.09;42.55;94622.19;4876591;29;7328;-60
2022/09/19 09:51:41;;;;;;;;;;;;;;;25.11;42.42;94618.91;4888915;29;6987;-60
2022/09/19 09:57:35;;;;;;;;;;;;;;;25.10;42.44;94617.44;4889593;29;7282;-60
2022/09/19 10:06:13;;;;;;;;;;;;;;;25.11;43.40;94608.66;4980242;28;7327;-60
2022/09/19 10:08:54;;;;;;;;;;;;;;;25.10;42.28;94611.91;4986063;28;7303;-60
2022/09/19 10:12:06;;;;;;;;;;;;;;;25.12;43.17;94614.91;4980417;28;7423;-60
2022/09/19 10:14:40;;;;;;;;;;;;;;;25.13;42.78;94608.16;4928442;28;9173;-60
2022/09/19 10:17:08;;;;;;;;;;;;;;;25.13;42.63;94619.91;4931857;28;7704;-60
2022/09/19 10:19:40;;;;;;;;;;;;;;;25.10;43.04;94618.16;4946266;28;7267;-60
2022/09/19 10:22:14;;;;;;;;;;;;;;;25.11;42.78;94614.16;4964018;28;6903;-60
2022/09/19 10:24:52;;;;;;;;;;;;;;;25.11;43.18;94607.91;5003131;28;7256;-60
2022/09/19 10:27:38;;;;;;;;;;;;;;;25.11;43.21;94613.41;5001665;28;9038;-60
2022/09/19 10:30:19;;;;;;;;;;;;;;;25.11;43.05;94605.91;4999140;28;6983;-60
2022/09/19 10:32:47;;;;;;;;;;;;;;;25.12;42.75;94621.16;5005510;28;7212;-60
2022/09/19 10:35:27;;;;;;;;;;;;;;;25.12;42.27;94610.16;5000158;28;7225;-60
2022/09/19 10:37:59;;;;;;;;;;;;;;;25.11;42.87;94607.91;4998136;28;7278;-59
2022/09/19 10:40:30;;;;;;;;;;;;;;;25.11;42.93;94607.91;5008399;28;7442;-60
2022/09/19 10:43:03;;;;;;;;;;;;;;;25.12;42.80;94609.41;5002072;28;6861;-60
2022/09/19 10:45:35;;;;;;;;;;;;;;;25.13;42.94;94599.88;5022246;28;7830;-60
2022/09/19 10:48:17;;;;;;;;;;;;;;;25.14;43.02;94602.13;5065688;28;9651;-60
2022/09/19 10:50:53;;;;;;;;;;;;;;;25.15;42.66;94603.66;5060182;28;7250;-60
2022/09/19 10:53:32;;;;;;;;;;;;;;;25.17;43.00;94600.38;5051602;28;7335;-60
2022/09/19 10:56:11;;;;;;;;;;;;;;;25.17;42.57;94600.38;5045231;28;7423;-60
2022/09/19 10:59:06;;;;;;;;;;;;;;;25.19;42.48;94595.13;5056891;28;8727;-60
2022/09/19 11:01:34;;;;;;;;;;;;;;;25.21;42.06;94600.88;4997901;28;7136;-60
2022/09/19 11:04:27;;;;;;;;;;;;;;;25.20;41.99;94596.63;4982189;28;7361;-60
2022/09/19 11:07:33;;;;;;;;;;;;;;;25.21;42.58;94592.63;5015243;28;7321;-60
2022/09/19 11:10:04;;;;;;;;;;;;;;;25.21;42.44;94596.13;4975959;28;7200;-60
2022/09/19 11:12:44;;;;;;;;;;;;;;;25.22;42.80;94591.38;4960095;28;9178;-60
2022/09/19 11:15:16;;;;;;;;;;;;;;;25.24;42.16;94594.38;4960144;28;7292;-60
2022/09/19 11:18:15;;;;;;;;;;;;;;;25.24;42.08;94594.38;4975987;28;7287;-60
2022/09/19 11:21:15;;;;;;;;;;;;;;;25.24;42.94;94602.63;4953172;28;7004;-60
2022/09/19 11:23:57;;;;;;;;;;;;;;;25.23;42.78;94603.88;4959552;28;7226;-60
2022/09/19 11:26:51;;;;;;;;;;;;;;;25.25;42.59;94604.13;4975383;28;7183;-60
2022/09/19 11:29:51;;;;;;;;;;;;;;;25.27;41.95;94602.34;4975577;28;7207;-60
2022/09/19 11:32:44;;;;;;;;;;;;;;;25.28;42.83;94600.38;4971983;28;7034;-60
2022/09/19 11:35:28;;;;;;;;;;;;;;;25.28;42.46;94600.38;4955588;28;8541;-60
2022/09/19 11:38:26;;;;;;;;;;;;;;;25.30;42.89;94603.38;4960175;28;7089;-60
2022/09/19 11:41:13;;;;;;;;;;;;;;;25.30;42.12;94592.34;5002447;28;7360;-60
2022/09/19 11:44:00;;;;;;;;;;;;;;;25.30;41.95;94597.84;5025457;28;9410;-60
2022/09/19 11:47:06;;;;;;;;;;;;;;;25.28;42.61;94590.09;5058146;28;8913;-60
2022/09/19 11:50:08;;;;;;;;;;;;;;;25.28;42.04;94587.34;5060850;28;7585;-60
2022/09/19 11:53:13;;;;;;;;;;;;;;;25.27;42.91;94593.38;5056798;28;7246;-60
2022/09/19 11:56:04;;;;;;;;;;;;;;;25.29;43.00;94588.84;5059726;28;9016;-60
2022/09/19 11:59:24;;;;;;;;;;;;;;;25.31;42.98;94593.88;5064712;28;8388;-60
2022/09/19 12:02:09;;;;;;;;;;;;;;;25.30;42.14;94578.59;5001903;28;9079;-60
2022/09/19 12:05:15;;;;;;;;;;;;;;;25.30;42.21;94587.59;5049393;28;9418;-60
2022/09/19 12:08:05;;;;;;;;;;;;;;;25.28;42.21;94581.09;5051593;28;7379;-60
2022/09/19 12:10:43;;;;;;;;;;;;;;;25.28;42.43;94579.09;5055287;28;7767;-60
2022/09/19 12:13:17;;;;;;;;;;;;;;;25.28;42.34;94578.34;5018104;28;7329;-59
2022/09/19 12:15:58;;;;;;;;;;;;;;;25.32;42.23;94581.59;5049083;28;7559;-60
2022/09/19 12:18:35;;;;;;;;;;;;;;;25.29;42.56;94575.06;5031913;28;8828;-60
2022/09/19 12:21:04;;;;;;;;;;;;;;;25.33;42.96;94572.84;5034116;28;7216;-60
2022/09/19 12:27:01;;;;;;;;;;;;;;;25.37;42.27;94573.31;5031028;28;9476;-60
2022/09/19 12:29:34;;;;;;;;;;;;;;;25.37;42.70;94569.81;5015648;28;7188;-60
2022/09/19 12:32:27;;;;;;;;;;;;;;;25.40;42.40;94563.31;5030853;28;9232;-60
2022/09/19 12:35:20;;;;;;;;;;;;;;;25.39;43.31;94556.28;5020358;28;9145;-60
2022/09/19 12:38:06;;;;;;;;;;;;;;;25.38;42.50;94552.06;5057806;28;7225;-60
2022/09/19 12:40:53;;;;;;;;;;;;;;;25.37;43.00;94548.53;5058362;28;9367;-60
2022/09/19 12:43:38;;;;;;;;;;;;;;;25.38;42.55;94554.81;5054932;28;7303;-60
2022/09/19 12:46:18;;;;;;;;;;;;;;;25.39;43.00;94550.78;5051499;28;7264;-60
2022/09/19 12:49:09;;;;;;;;;;;;;;;25.42;42.88;94544.31;5064028;28;7570;-60
2022/09/19 12:52:00;;;;;;;;;;;;;;;25.45;42.86;94537.75;5065767;28;7494;-60
2022/09/19 12:54:36;;;;;;;;;;;;;;;25.47;43.33;94535.25;5063891;28;7970;-60
2022/09/19 12:57:36;;;;;;;;;;;;;;;25.47;42.65;94535.25;5047550;28;7187;-60
2022/09/19 13:00:10;;;;;;;;;;;;;;;25.51;42.63;94535.00;5065298;28;7337;-60
2022/09/19 13:03:00;;;;;;;;;;;;;;;25.52;42.93;94536.50;5064888;28;8748;-60
2022/09/19 13:05:40;;;;;;;;;;;;;;;25.51;43.50;94533.00;5051818;28;7252;-60
2022/09/19 13:08:25;;;;;;;;;;;;;;;25.56;42.65;94529.47;5061055;28;9033;-61
2022/09/19 13:11:16;;;;;;;;;;;;;;;25.58;43.26;94531.72;5064658;28;7241;-60
2022/09/19 13:14:21;;;;;;;;;;;;;;;25.58;43.29;94528.97;5051472;28;9056;-60
2022/09/19 13:26:16;;;;;;;;;;;;;;;25.63;43.45;94526.19;4998934;28;6985;-60
2022/09/19 13:28:56;;;;;;;;;;;;;;;25.62;43.70;94521.19;4949134;28;7254;-60
2022/09/19 13:31:52;;;;;;;;;;;;;;;25.65;43.91;94523.66;4949737;28;8087;-60
2022/09/19 13:34:42;;;;;;;;;;;;;;;25.67;43.05;94526.66;4946287;28;7361;-60
2022/09/19 13:37:29;;;;;;;;;;;;;;;25.71;43.09;94523.66;4948704;28;9034;-60
2022/09/19 13:40:06;;;;;;;;;;;;;;;25.72;43.66;94517.63;4946434;28;7865;-60
2022/09/19 13:42:44;;;;;;;;;;;;;;;25.74;43.06;94517.88;4932498;28;7303;-60
2022/09/19 13:45:36;;;;;;;;;;;;;;;25.75;43.25;94519.34;4946983;28;7269;-60
2022/09/19 13:48:42;;;;;;;;;;;;;;;25.78;42.79;94521.09;4916656;29;7343;-60
2022/09/19 13:51:23;;;;;;;;;;;;;;;25.81;43.70;94522.09;4951356;28;7285;-60
2022/09/19 13:54:23;;;;;;;;;;;;;;;25.82;42.46;94521.56;4976970;28;7329;-59
2022/09/19 13:57:02;;;;;;;;;;;;;;;25.83;42.62;94520.34;4973711;28;8278;-60
2022/09/19 13:59:31;;;;;;;;;;;;;;;25.87;43.42;94520.06;4975135;28;7569;-60
2022/09/19 14:02:01;;;;;;;;;;;;;;;25.88;43.47;94522.28;4974941;28;7271;-60
2022/09/19 14:05:02;;;;;;;;;;;;;;;25.92;43.60;94530.31;4972309;28;9355;-59
2022/09/19 14:07:53;;;;;;;;;;;;;;;25.95;43.76;94513.50;4985886;28;7501;-60
2022/09/19 14:10:39;;;;;;;;;;;;;;;25.96;43.81;94509.47;4980436;28;8584;-59
2022/09/19 14:13:27;;;;;;;;;;;;;;;25.99;43.78;94502.94;4984509;28;9182;-59
2022/09/19 14:16:09;;;;;;;;;;;;;;;26.01;43.64;94503.16;4997053;28;7741;-59
2022/09/19 14:18:54;;;;;;;;;;;;;;;26.04;43.18;94510.44;4988354;28;7153;-59
2022/09/19 14:21:25;;;;;;;;;;;;;;;26.07;43.81;94508.66;4987724;28;7091;-60
2022/09/19 14:24:17;;;;;;;;;;;;;;;26.08;43.92;94502.66;5005030;28;8301;-59
2022/09/19 14:27:01;;;;;;;;;;;;;;;26.11;43.58;94504.41;5004431;28;7302;-59